Hlavní strana
METAR-TAF:

METAR-TAF

Letiště :

Jönköping, Švédsko

zeměpisná šířka: 57-46N, zeměpisná délka: 014-05E, výška: 226 m

Aktuální stav počasí

Zpráva byla vytvořena před 44 minutami, v 02:20 UTC
Západojihozápadní vítr 2 kt
Teplota -2°C
Vlhkost vzduchu 93%
Tlak 1023 hPa
Viditelnost 10 km a více

METAR: ESGJ 190220Z AUTO 25002KT 9999 NCD M02/M03 Q1023

Čas: 05:04 (03:04 UTC)

Předpověď počasí

Zpráva byla vytvořena před 6 hodinami a 34 minutami, v 20:30 UTC
Předpověď platná od 18 v 21 UTC do 19 v 01 UTC
vítr z různých směrů 1 kt
Viditelnost 10 km a více
Žádná oblačnost pod 1500 m, nevyskytují se cumulonimby.

TAF: ESGJ 182030Z 1821/1901 VRB01KT CAVOK

Stav a předpovědi počasí z více než 4 000 letišť (zprávy METAR a TAF).

Červené a žluté tečky na mapě představují dostupné meteorologické stanice.

Když kurzor umístíte na tečku, zobrazí se název stanice.

Pak kliknutím zobrazíte stav a předpověď počasí.

Chcete-li změnit mapu, kliknutím na zelené tlačítko se znaménkem +mapu přiblížíte, kliknutím na zelené tlačítko se znaménkem – mapu oddálíte a kliknutím na zelené šipky přejdete na sousední mapy.


METAR-TAF: